createdAt,value
2016-09-28T00:00:11.275Z,20.51
2016-09-28T00:01:11.269Z,20.49
2016-09-28T00:02:11.059Z,20.58
2016-09-28T00:03:11.415Z,20.59
2016-09-28T00:04:11.356Z,20.56
2016-09-28T00:05:11.393Z,20.53
2016-09-28T00:06:10.972Z,20.56
2016-09-28T00:07:10.967Z,20.61
2016-09-28T00:08:10.881Z,20.66
2016-09-28T00:09:16.274Z,20.74
2016-09-28T00:10:11.006Z,20.68
2016-09-28T00:11:10.840Z,20.62
2016-09-28T00:12:11.590Z,20.69
2016-09-28T00:13:10.756Z,20.65
2016-09-28T00:14:10.716Z,20.69
2016-09-28T00:15:11.148Z,20.68
2016-09-28T00:16:10.666Z,20.59
2016-09-28T00:17:11.017Z,20.51
2016-09-28T00:18:10.694Z,20.51
2016-09-28T00:19:10.619Z,20.53
2016-09-28T00:20:25.616Z,20.65
2016-09-28T00:21:10.922Z,20.66
2016-09-28T00:22:10.562Z,20.69
2016-09-28T00:23:10.514Z,20.68
2016-09-28T00:24:10.483Z,20.65
2016-09-28T00:25:10.456Z,20.53
2016-09-28T00:26:10.823Z,20.66
2016-09-28T00:27:25.412Z,20.43
2016-09-28T00:28:10.813Z,20.39
2016-09-28T00:29:24.990Z,20.41
2016-09-28T00:30:10.703Z,20.46
2016-09-28T00:31:10.247Z,20.38
2016-09-28T00:32:10.291Z,20.56
2016-09-28T00:33:10.610Z,20.51
2016-09-28T00:34:10.196Z,20.64
2016-09-28T00:35:10.547Z,20.53
2016-09-28T00:36:10.209Z,20.62
2016-09-28T00:37:10.582Z,20.62
2016-09-28T00:38:10.124Z,20.61
2016-09-28T00:39:10.747Z,20.34
2016-09-28T00:41:10.041Z,20.59
2016-09-28T00:42:24.738Z,20.38
2016-09-28T00:43:09.967Z,20.42
2016-09-28T00:44:09.939Z,20.56
2016-09-28T00:45:09.913Z,20.56
2016-09-28T00:46:10.462Z,20.56
2016-09-28T00:47:10.276Z,20.53
2016-09-28T00:48:09.919Z,20.68
2016-09-28T00:49:09.882Z,20.61
2016-09-28T00:50:09.788Z,20.58
2016-09-28T00:51:10.124Z,20.58
2016-09-28T00:52:10.242Z,20.64
2016-09-28T00:55:09.618Z,20.68
2016-09-28T00:56:10.176Z,20.5
2016-09-28T00:57:09.973Z,20.56
2016-09-28T00:58:09.565Z,20.69
2016-09-28T00:59:09.627Z,20.59
2016-09-28T01:00:10.674Z,20.74
2016-09-28T01:01:09.545Z,20.69
2016-09-28T01:02:09.475Z,20.71
2016-09-28T01:03:09.450Z,20.64
2016-09-28T01:04:09.464Z,20.69
2016-09-28T01:05:09.965Z,20.47
2016-09-28T01:06:09.357Z,20.51
2016-09-28T01:07:09.289Z,20.39
2016-09-28T01:08:09.288Z,20.51
2016-09-28T01:09:09.306Z,20.41
2016-09-28T01:10:09.384Z,20.38
2016-09-28T01:11:09.206Z,20.54
2016-09-28T01:12:09.224Z,20.64
2016-09-28T01:13:09.527Z,20.47
2016-09-28T01:14:09.533Z,20.34
2016-09-28T01:15:09.996Z,20.34
2016-09-28T01:16:09.081Z,20.38
2016-09-28T01:17:09.053Z,20.33
2016-09-28T01:18:09.148Z,20.21
2016-09-28T01:19:08.962Z,20.16
2016-09-28T01:20:08.991Z,20.02
2016-09-28T01:21:09.067Z,19.87
2016-09-28T01:22:09.011Z,20.15
2016-09-28T01:23:23.635Z,20
2016-09-28T01:24:08.849Z,19.98
2016-09-28T01:25:08.849Z,20.06
2016-09-28T01:26:08.798Z,19.95
2016-09-28T01:27:23.912Z,20
2016-09-28T01:28:08.745Z,19.9
2016-09-28T01:29:08.731Z,20
2016-09-28T01:30:08.704Z,20.09
2016-09-28T01:31:08.727Z,20.13
2016-09-28T01:32:09.045Z,20.1
2016-09-28T01:33:08.628Z,20.15
2016-09-28T01:34:23.274Z,20.12
2016-09-28T01:35:08.568Z,20.13
2016-09-28T01:36:09.056Z,20.12
2016-09-28T01:37:08.877Z,20.18
2016-09-28T01:38:08.876Z,20.15
2016-09-28T01:39:08.465Z,20.21
2016-09-28T01:40:08.815Z,19.98
2016-09-28T01:41:08.833Z,20.02
2016-09-28T01:42:08.953Z,19.73
2016-09-28T01:44:08.310Z,19.6
2016-09-28T01:45:08.781Z,19.6
2016-09-28T01:46:08.284Z,19.7
2016-09-28T01:47:08.229Z,19.72
2016-09-28T01:48:08.640Z,19.69
2016-09-28T01:49:08.662Z,19.91
2016-09-28T01:50:08.211Z,19.91
2016-09-28T01:51:08.228Z,19.75
2016-09-28T01:52:08.087Z,19.78
2016-09-28T01:53:08.101Z,19.95
2016-09-28T01:54:08.134Z,19.87
2016-09-28T01:55:08.407Z,19.95
2016-09-28T01:56:08.015Z,20.02
2016-09-28T01:57:07.981Z,19.97
2016-09-28T01:58:07.963Z,19.98
2016-09-28T01:59:08.020Z,20.16
2016-09-28T02:00:08.261Z,20
2016-09-28T02:01:07.887Z,20.09
2016-09-28T02:02:07.857Z,20.23
2016-09-28T02:03:07.811Z,20.13
2016-09-28T02:04:07.792Z,20.12
2016-09-28T02:05:07.753Z,20.16
2016-09-28T02:06:07.729Z,20.21
2016-09-28T02:07:07.732Z,20.13
2016-09-28T02:08:08.049Z,20.25
2016-09-28T02:09:07.785Z,20.28
2016-09-28T02:10:08.023Z,20.31
2016-09-28T02:11:07.596Z,20.33
2016-09-28T02:12:07.589Z,20.41
2016-09-28T02:13:07.530Z,20.3
2016-09-28T02:14:07.614Z,20.3
2016-09-28T02:15:07.570Z,20.28
2016-09-28T02:16:07.499Z,20.28
2016-09-28T02:17:07.602Z,20.28
2016-09-28T02:18:22.115Z,20.39
2016-09-28T02:19:07.806Z,20.38
2016-09-28T02:20:07.853Z,20.41
2016-09-28T02:21:07.693Z,20.49
2016-09-28T02:22:08.173Z,20.42
2016-09-28T02:23:07.298Z,20.54
2016-09-28T02:24:07.655Z,20.69
2016-09-28T02:25:07.588Z,20.56
2016-09-28T02:26:07.235Z,20.49
2016-09-28T02:27:07.164Z,20.69
2016-09-28T02:28:07.507Z,20.74
2016-09-28T02:29:07.113Z,20.72
2016-09-28T02:30:07.078Z,20.65
2016-09-28T02:32:07.543Z,20.69
2016-09-28T02:33:22.066Z,20.56
2016-09-28T02:34:06.953Z,20.58
2016-09-28T02:35:21.638Z,20.54
2016-09-28T02:36:07.321Z,20.58
2016-09-28T02:37:06.895Z,20.54
2016-09-28T02:38:06.934Z,20.5
2016-09-28T02:39:06.830Z,20.64
2016-09-28T02:40:06.848Z,20.64
2016-09-28T02:41:07.197Z,20.64
2016-09-28T02:42:06.772Z,20.58
2016-09-28T02:43:07.337Z,20.33
2016-09-28T02:44:06.719Z,20.12
2016-09-28T02:45:06.711Z,20.23
2016-09-28T02:46:21.705Z,20.28
2016-09-28T02:47:07.041Z,20.31
2016-09-28T02:48:21.282Z,20.46
2016-09-28T02:49:06.568Z,20.41
2016-09-28T02:50:06.925Z,20.53
2016-09-28T02:51:06.528Z,20.66
2016-09-28T02:52:06.482Z,20.74
2016-09-28T02:53:06.477Z,20.66
2016-09-28T02:54:06.838Z,20.62
2016-09-28T02:55:06.419Z,20.69
2016-09-28T02:56:06.442Z,20.53
2016-09-28T02:57:06.849Z,20.69
2016-09-28T02:58:06.416Z,20.68
2016-09-28T02:59:06.351Z,20.74
2016-09-28T03:00:06.734Z,20.54
2016-09-28T03:01:06.249Z,20.49
2016-09-28T03:02:06.236Z,20.46
2016-09-28T03:03:06.610Z,20.5
2016-09-28T03:04:06.535Z,20.43
2016-09-28T03:05:06.549Z,20.38
2016-09-28T03:06:06.205Z,20.47
2016-09-28T03:07:06.109Z,20.33
2016-09-28T03:08:06.089Z,20.38
2016-09-28T03:09:06.055Z,20.38
2016-09-28T03:10:06.420Z,20.46
2016-09-28T03:11:06.490Z,20.41
2016-09-28T03:12:06.001Z,20.59
2016-09-28T03:13:05.937Z,20.59
2016-09-28T03:14:05.909Z,20.51
2016-09-28T03:15:20.573Z,20.41
2016-09-28T03:16:05.912Z,20.28
2016-09-28T03:17:05.877Z,20.27
2016-09-28T03:18:05.916Z,20.33
2016-09-28T03:19:05.784Z,20.31
2016-09-28T03:20:05.797Z,20.27
2016-09-28T03:21:05.751Z,20.28
2016-09-28T03:22:20.787Z,20.16
2016-09-28T03:23:05.675Z,20.15
2016-09-28T03:24:06.050Z,20.12
2016-09-28T03:25:05.635Z,20.12
2016-09-28T03:27:05.967Z,20.02
2016-09-28T03:28:05.520Z,20.08
2016-09-28T03:29:05.498Z,20.23
2016-09-28T03:30:05.881Z,20.28
2016-09-28T03:31:05.445Z,20.31
2016-09-28T03:32:05.798Z,20.41
2016-09-28T03:33:05.417Z,20.27
2016-09-28T03:34:05.804Z,20.15
2016-09-28T03:35:05.710Z,19.95
2016-09-28T03:36:05.412Z,19.93
2016-09-28T03:37:05.334Z,19.88
2016-09-28T03:38:05.260Z,19.86
2016-09-28T03:39:05.630Z,20.05
2016-09-28T03:40:20.181Z,20.05
2016-09-28T03:41:05.198Z,20.1
2016-09-28T03:42:05.159Z,19.98
2016-09-28T03:43:05.601Z,20.02
2016-09-28T03:44:05.217Z,19.9
2016-09-28T03:45:05.114Z,19.87
2016-09-28T03:46:05.205Z,19.84
2016-09-28T03:47:05.142Z,19.91
2016-09-28T03:48:05.068Z,19.86
2016-09-28T03:49:05.412Z,19.93
2016-09-28T03:50:05.055Z,19.9
2016-09-28T03:51:04.986Z,19.87
2016-09-28T03:52:04.949Z,19.87
2016-09-28T03:53:05.027Z,19.86
2016-09-28T03:54:05.294Z,19.91
2016-09-28T03:55:05.297Z,19.97
2016-09-28T03:56:04.841Z,19.84
2016-09-28T03:57:04.836Z,19.75
2016-09-28T03:58:05.171Z,19.58
2016-09-28T03:59:04.764Z,19.72
2016-09-28T04:00:17.384Z,19.73
2016-09-28T04:01:04.684Z,19.83
2016-09-28T04:02:19.299Z,19.86
2016-09-28T04:03:04.636Z,19.84
2016-09-28T04:04:04.588Z,19.83
2016-09-28T04:05:05.395Z,19.91
2016-09-28T04:06:04.520Z,20
2016-09-28T04:07:04.500Z,19.87
2016-09-28T04:08:19.141Z,19.88
2016-09-28T04:09:04.411Z,20.05
2016-09-28T04:10:04.420Z,20.12
2016-09-28T04:11:04.438Z,20.15
2016-09-28T04:12:04.969Z,20.15
2016-09-28T04:13:04.734Z,20.2
2016-09-28T04:14:04.300Z,20.18
2016-09-28T04:15:04.647Z,20.33
2016-09-28T04:16:04.663Z,20.23
2016-09-28T04:18:04.178Z,20.13
2016-09-28T04:19:04.223Z,20.08
2016-09-28T04:20:04.149Z,20.08
2016-09-28T04:21:04.512Z,20.09
2016-09-28T04:22:04.457Z,20.16
2016-09-28T04:23:04.243Z,20.13
2016-09-28T04:24:04.406Z,20.28
2016-09-28T04:25:04.049Z,20.31
2016-09-28T04:26:04.350Z,20.3
2016-09-28T04:27:19.409Z,20.31
2016-09-28T04:29:05.817Z,20.2
2016-09-28T04:30:18.543Z,20.12
2016-09-28T04:31:04.239Z,20.2
2016-09-28T04:32:04.153Z,20.24
2016-09-28T04:33:03.784Z,20.27
2016-09-28T04:34:03.792Z,20.13
2016-09-28T04:35:04.135Z,20.08
2016-09-28T04:36:03.708Z,20.1
2016-09-28T04:37:04.181Z,20.13
2016-09-28T04:38:03.660Z,20.2
2016-09-28T04:40:03.621Z,20.21
2016-09-28T04:41:03.573Z,20.12
2016-09-28T04:42:03.867Z,20.16
2016-09-28T04:43:04.087Z,20.12
2016-09-28T04:44:03.895Z,20.09
2016-09-28T04:45:03.832Z,20.27
2016-09-28T04:46:03.453Z,20.12
2016-09-28T04:47:03.723Z,20.24
2016-09-28T04:48:03.399Z,20.3
2016-09-28T04:49:03.361Z,20.28
2016-09-28T04:50:03.757Z,20.25
2016-09-28T04:51:03.335Z,20.27
2016-09-28T04:52:17.951Z,20.33
2016-09-28T04:53:03.244Z,20.23
2016-09-28T04:54:17.922Z,20.15
2016-09-28T04:55:03.204Z,20.05
2016-09-28T04:56:03.194Z,20.1
2016-09-28T04:57:03.232Z,20.28
2016-09-28T04:58:03.201Z,20.3
2016-09-28T04:59:03.095Z,20.21
2016-09-28T05:00:03.452Z,20.1
2016-09-28T05:01:04.054Z,20.12
2016-09-28T05:02:03.017Z,20.02
2016-09-28T05:04:03.331Z,20.1
2016-09-28T05:05:08.410Z,20.12
2016-09-28T05:06:03.683Z,20.24
2016-09-28T05:07:02.915Z,20.25
2016-09-28T05:08:02.846Z,20.13
2016-09-28T05:09:03.283Z,19.94
2016-09-28T05:10:03.188Z,20.15
2016-09-28T05:11:03.199Z,20.12
2016-09-28T05:12:03.251Z,20.23
2016-09-28T05:13:03.173Z,20.3
2016-09-28T05:14:02.894Z,20.39
2016-09-28T05:15:03.056Z,20.33
2016-09-28T05:16:02.642Z,20.13
2016-09-28T05:17:03.012Z,20.13
2016-09-28T05:18:03.030Z,20.16
2016-09-28T05:19:02.976Z,20.09
2016-09-28T05:20:02.941Z,20.13
2016-09-28T05:21:02.878Z,20.24
2016-09-28T05:22:02.601Z,20.2
2016-09-28T05:23:03.254Z,20.31
2016-09-28T05:24:17.088Z,20.3
2016-09-28T05:25:02.779Z,20.41
2016-09-28T05:26:03.122Z,20.39
2016-09-28T05:27:03.106Z,20.28
2016-09-28T05:28:02.540Z,20.16
2016-09-28T05:29:02.345Z,20.16
2016-09-28T05:30:02.840Z,19.98
2016-09-28T05:31:16.924Z,20.02
2016-09-28T05:32:02.995Z,20.12
2016-09-28T05:33:02.192Z,20.03
2016-09-28T05:35:03.012Z,20.02
2016-09-28T05:36:02.100Z,20.1
2016-09-28T05:37:02.076Z,20.16
2016-09-28T05:38:02.089Z,20.12
2016-09-28T05:39:02.573Z,20.09
2016-09-28T05:40:02.480Z,19.98
2016-09-28T05:41:02.755Z,20.16
2016-09-28T05:42:02.356Z,20.09
2016-09-28T05:43:01.907Z,20.21
2016-09-28T05:44:01.916Z,20.21
2016-09-28T05:45:16.578Z,20.38
2016-09-28T05:46:02.613Z,20.27
2016-09-28T05:49:11.543Z,20.43
2016-09-28T05:49:42.539Z,20.53
2016-09-28T05:50:57.781Z,20.42
2016-09-28T05:51:42.469Z,20.54
2016-09-28T05:52:42.798Z,20.65
2016-09-28T05:53:42.192Z,20.61
2016-09-28T05:54:42.117Z,20.62
2016-09-28T05:55:42.381Z,20.8
2016-09-28T05:56:41.945Z,20.84
2016-09-28T05:58:41.990Z,20.53
2016-09-28T05:59:41.975Z,20.47
2016-09-28T06:00:41.908Z,20.51
2016-09-28T06:01:56.505Z,20.47
2016-09-28T06:02:42.832Z,20.54
2016-09-28T06:03:42.256Z,20.54
2016-09-28T06:04:42.492Z,20.56
2016-09-28T06:05:42.082Z,20.72
2016-09-28T06:06:42.485Z,20.59
2016-09-28T06:07:42.253Z,20.56
2016-09-28T06:08:42.008Z,20.43
2016-09-28T06:09:41.680Z,20.34
2016-09-28T06:10:42.520Z,20.59
2016-09-28T06:11:42.009Z,20.89
2016-09-28T06:12:42.600Z,20.91
2016-09-28T06:13:41.578Z,20.9
2016-09-28T06:14:41.517Z,20.74
2016-09-28T06:15:41.501Z,20.76
2016-09-28T06:16:41.804Z,20.76
2016-09-28T06:17:41.417Z,20.71
2016-09-28T06:18:41.502Z,20.87
2016-09-28T06:19:48.489Z,21.01
2016-09-28T06:20:41.367Z,20.98
2016-09-28T06:21:41.769Z,20.99
2016-09-28T06:22:41.648Z,20.86
2016-09-28T06:23:41.703Z,20.81
2016-09-28T06:24:42.090Z,20.72
2016-09-28T06:25:41.239Z,20.69
2016-09-28T06:26:50.184Z,20.65
2016-09-28T06:27:41.146Z,20.76
2016-09-28T06:28:56.171Z,20.86
2016-09-28T06:29:41.467Z,20.86
2016-09-28T06:30:41.643Z,20.83
2016-09-28T06:31:41.045Z,20.76
2016-09-28T06:32:41.407Z,20.76
2016-09-28T06:33:41.026Z,20.81
2016-09-28T06:34:41.413Z,20.71
2016-09-28T06:36:40.927Z,20.54
2016-09-28T06:37:40.911Z,20.62
2016-09-28T06:39:41.246Z,20.56
2016-09-28T06:40:41.021Z,20.62
2016-09-28T06:41:55.442Z,20.56
2016-09-28T06:42:41.436Z,20.65
2016-09-28T06:43:41.166Z,20.76
2016-09-28T06:44:41.540Z,20.87
2016-09-28T06:45:41.481Z,20.69
2016-09-28T06:46:40.995Z,20.65
2016-09-28T06:47:40.991Z,20.77
2016-09-28T06:49:40.606Z,20.74
2016-09-28T06:50:41.345Z,20.71
2016-09-28T06:51:40.524Z,20.84
2016-09-28T06:52:41.281Z,20.86
2016-09-28T06:53:40.880Z,20.99
2016-09-28T06:54:40.425Z,20.9
2016-09-28T06:55:41.417Z,20.91
2016-09-28T06:56:41.126Z,20.98
2016-09-28T06:58:40.328Z,20.89
2016-09-28T06:59:40.810Z,20.89
2016-09-28T07:00:40.462Z,20.95
2016-09-28T07:01:40.362Z,20.98
2016-09-28T07:02:40.201Z,20.86
2016-09-28T07:03:55.637Z,20.87
2016-09-28T07:04:40.137Z,20.96
2016-09-28T07:05:40.221Z,21.09
2016-09-28T07:07:40.375Z,20.96
2016-09-28T07:08:40.164Z,21.05
2016-09-28T07:09:40.001Z,20.95
2016-09-28T07:10:40.207Z,20.93
2016-09-28T07:11:40.158Z,20.86
2016-09-28T07:12:40.329Z,20.98
2016-09-28T07:13:54.585Z,20.93
2016-09-28T07:14:54.552Z,20.84
2016-09-28T07:15:54.836Z,20.93
2016-09-28T07:16:39.995Z,21.01
2016-09-28T07:17:39.811Z,20.98
2016-09-28T07:18:54.487Z,21.02
2016-09-28T07:19:40.242Z,20.99
2016-09-28T07:20:40.003Z,21.06
2016-09-28T07:21:39.816Z,21.02
2016-09-28T07:22:39.998Z,21.06
2016-09-28T07:23:39.900Z,20.95
2016-09-28T07:25:54.279Z,20.95
2016-09-28T07:26:54.311Z,20.96
2016-09-28T07:27:39.593Z,21.04
2016-09-28T07:29:39.505Z,20.98
2016-09-28T07:30:39.934Z,20.96
2016-09-28T07:31:40.055Z,20.91
2016-09-28T07:32:39.529Z,20.83
2016-09-28T07:33:39.776Z,20.86
2016-09-28T07:34:39.429Z,20.98
2016-09-28T07:35:39.541Z,20.72
2016-09-28T07:36:39.963Z,20.84
2016-09-28T07:37:39.593Z,20.9
2016-09-28T07:41:41.991Z,20.76
2016-09-28T07:42:25.419Z,20.69
2016-09-28T07:43:25.352Z,20.84
2016-09-28T07:44:25.303Z,20.96
2016-09-28T07:45:26.054Z,20.84
2016-09-28T07:46:25.303Z,20.86
2016-09-28T07:47:25.246Z,21.02
2016-09-28T07:48:25.225Z,20.98
2016-09-28T07:49:25.319Z,20.91
2016-09-28T07:50:25.242Z,20.96
2016-09-28T07:51:25.131Z,20.91
2016-09-28T07:52:25.105Z,20.95
2016-09-28T07:53:25.080Z,20.99
2016-09-28T07:54:39.773Z,20.99
2016-09-28T07:55:25.197Z,21.01
2016-09-28T07:56:24.988Z,21.14
2016-09-28T07:57:24.999Z,21.19
2016-09-28T07:58:24.949Z,21.01
2016-09-28T07:59:24.986Z,20.89
2016-09-28T08:00:24.952Z,20.89
2016-09-28T08:01:24.863Z,20.83
2016-09-28T08:02:24.830Z,20.98
2016-09-28T08:03:24.803Z,20.98
2016-09-28T08:04:24.813Z,20.95
2016-09-28T08:05:24.769Z,20.98
2016-09-28T08:06:24.736Z,20.95
2016-09-28T08:07:24.679Z,20.98
2016-09-28T08:08:24.656Z,20.83
2016-09-28T08:09:24.676Z,21.02
2016-09-28T08:10:24.646Z,20.93
2016-09-28T08:11:24.578Z,21.04
2016-09-28T08:12:24.582Z,21.08
2016-09-28T08:13:24.727Z,20.99
2016-09-28T08:14:24.610Z,20.96
2016-09-28T08:15:24.466Z,21.14
2016-09-28T08:16:24.519Z,21.01
2016-09-28T08:17:24.465Z,20.86
2016-09-28T08:18:24.386Z,21.05
2016-09-28T08:19:24.366Z,21.23
2016-09-28T08:20:24.380Z,21.36
2016-09-28T08:21:24.345Z,21.24
2016-09-28T08:22:24.302Z,21.27
2016-09-28T08:23:24.308Z,21.24
2016-09-28T08:24:24.239Z,21.08
2016-09-28T08:25:24.596Z,21.23
2016-09-28T08:26:24.185Z,21.38
2016-09-28T08:27:24.145Z,21.29
2016-09-28T08:28:24.135Z,21.29
2016-09-28T08:29:24.091Z,21.24
2016-09-28T08:30:24.116Z,21.44
2016-09-28T08:31:24.273Z,21.35
2016-09-28T08:32:24.066Z,21.27
2016-09-28T08:33:38.751Z,21.45
2016-09-28T08:34:23.971Z,21.29
2016-09-28T08:35:23.929Z,21.39
2016-09-28T08:36:25.216Z,21.39
2016-09-28T08:37:24.002Z,21.34
2016-09-28T08:38:23.880Z,21.42
2016-09-28T08:39:23.846Z,21.45
2016-09-28T08:40:23.806Z,21.48
2016-09-28T08:42:23.755Z,21.42
2016-09-28T08:43:24.402Z,21.53
2016-09-28T08:44:23.692Z,21.6
2016-09-28T08:45:24.009Z,21.5
2016-09-28T08:47:23.622Z,21.38
2016-09-28T08:48:24.788Z,21.17
2016-09-28T08:49:23.601Z,21.17
2016-09-28T08:50:23.573Z,21.11
2016-09-28T08:51:23.910Z,20.98
2016-09-28T08:52:23.521Z,21.09
2016-09-28T08:53:23.466Z,21.06
2016-09-28T08:54:28.485Z,21.01
2016-09-28T08:55:23.420Z,20.99
2016-09-28T08:56:23.390Z,21.08
2016-09-28T08:57:23.383Z,21.11
2016-09-28T08:58:23.353Z,21.16
2016-09-28T08:59:23.548Z,21.17
2016-09-28T09:00:23.919Z,21.27
2016-09-28T09:01:23.306Z,21.34
2016-09-28T09:02:23.278Z,21.46
2016-09-28T09:03:23.581Z,21.41
2016-09-28T09:04:23.204Z,21.78
2016-09-28T09:05:38.193Z,21.71
2016-09-28T09:06:23.245Z,21.57
2016-09-28T09:08:23.148Z,21.69
2016-09-28T09:09:23.090Z,21.74
2016-09-28T09:10:23.034Z,21.64
2016-09-28T09:11:22.971Z,21.79
2016-09-28T09:12:22.977Z,21.74
2016-09-28T09:13:22.929Z,21.74
2016-09-28T09:14:37.625Z,21.95
2016-09-28T09:15:23.245Z,21.85
2016-09-28T09:16:23.038Z,21.83
2016-09-28T09:17:22.863Z,21.95
2016-09-28T09:18:22.818Z,21.98
2016-09-28T09:19:22.793Z,21.79
2016-09-28T09:20:22.863Z,21.85
2016-09-28T09:21:22.775Z,21.81
2016-09-28T09:22:22.723Z,21.83
2016-09-28T09:24:22.698Z,21.56
2016-09-28T09:25:22.636Z,21.71
2016-09-28T09:26:22.654Z,21.56
2016-09-28T09:27:22.565Z,21.53
2016-09-28T09:28:22.530Z,21.42
2016-09-28T09:29:22.536Z,21.5
2016-09-28T09:30:22.563Z,21.32
2016-09-28T09:31:22.556Z,21.42
2016-09-28T09:32:22.454Z,21.39
2016-09-28T09:33:22.430Z,21.34
2016-09-28T09:35:22.767Z,21.29
2016-09-28T09:37:22.297Z,21.3
2016-09-28T09:38:22.280Z,21.53
2016-09-28T09:39:22.261Z,21.54
2016-09-28T09:40:22.637Z,21.54
2016-09-28T09:41:22.284Z,21.71
2016-09-28T09:42:22.204Z,21.85
2016-09-28T09:43:22.448Z,21.97
2016-09-28T09:44:22.156Z,21.98
2016-09-28T09:45:22.156Z,21.85
2016-09-28T09:46:22.440Z,21.9
2016-09-28T09:47:22.084Z,22.06
2016-09-28T09:48:22.036Z,21.88
2016-09-28T09:49:22.380Z,22.22
2016-09-28T09:50:23.413Z,22.31
2016-09-28T09:52:23.217Z,22.47
2016-09-28T09:53:22.999Z,22.56
2016-09-28T09:54:22.744Z,22.5
2016-09-28T09:55:22.072Z,22.46
2016-09-28T09:56:22.186Z,22.46
2016-09-28T09:57:22.090Z,22.43
2016-09-28T09:58:21.775Z,22.37
2016-09-28T09:59:21.763Z,22.39
2016-09-28T10:00:36.411Z,22.35
2016-09-28T10:01:21.682Z,22.27
2016-09-28T10:02:36.360Z,22.31
2016-09-28T10:03:21.624Z,22.28
2016-09-28T10:04:21.577Z,22.17
2016-09-28T10:05:21.562Z,22.17
2016-09-28T10:06:36.274Z,22.09
2016-09-28T10:07:21.510Z,22.12
2016-09-28T10:08:21.533Z,22.1
2016-09-28T10:09:21.491Z,22.12
2016-09-28T10:10:21.475Z,21.98
2016-09-28T10:11:21.431Z,21.97
2016-09-28T10:12:21.599Z,22.07
2016-09-28T10:13:21.346Z,21.82
2016-09-28T10:14:21.358Z,21.69
2016-09-28T10:15:21.386Z,21.76
2016-09-28T10:16:21.358Z,21.88
2016-09-28T10:17:21.266Z,21.75
2016-09-28T10:18:21.249Z,21.78
2016-09-28T10:19:21.234Z,21.78
2016-09-28T10:20:21.202Z,21.75
2016-09-28T10:21:21.187Z,21.79
2016-09-28T10:22:21.223Z,21.76
2016-09-28T10:23:21.134Z,21.97
2016-09-28T10:24:21.187Z,21.92
2016-09-28T10:25:21.155Z,21.99
2016-09-28T10:26:21.041Z,21.97
2016-09-28T10:27:21.041Z,21.97
2016-09-28T10:28:20.955Z,21.85
2016-09-28T10:29:20.964Z,22.01
2016-09-28T10:30:20.899Z,22.12
2016-09-28T10:31:21.769Z,22.09
2016-09-28T10:32:20.886Z,22.1
2016-09-28T10:33:20.854Z,22.12
2016-09-28T10:34:20.805Z,22.07
2016-09-28T10:35:20.779Z,22.04
2016-09-28T10:36:20.779Z,22.1
2016-09-28T10:37:20.769Z,22.01
2016-09-28T10:38:21.659Z,21.99
2016-09-28T10:42:07.613Z,22.07
2016-09-28T10:43:07.462Z,22.25
2016-09-28T10:44:21.695Z,22.35
2016-09-28T10:45:21.652Z,22.23
2016-09-28T10:46:07.849Z,22.14
2016-09-28T10:47:07.518Z,22.2
2016-09-28T10:48:07.736Z,22.41
2016-09-28T10:49:07.383Z,22.44
2016-09-28T10:50:07.478Z,22.64
2016-09-28T10:51:07.008Z,22.57
2016-09-28T10:52:07.356Z,22.59
2016-09-28T10:53:07.716Z,22.41
2016-09-28T10:54:07.540Z,22.47
2016-09-28T10:55:07.360Z,22.47
2016-09-28T10:56:06.762Z,22.5
2016-09-28T10:57:06.774Z,22.53
2016-09-28T10:58:07.060Z,22.56
2016-09-28T10:59:08.352Z,22.6
2016-09-28T11:00:07.039Z,22.68
2016-09-28T11:02:07.605Z,22.57
2016-09-28T11:03:07.883Z,22.8
2016-09-28T11:04:07.584Z,22.83
2016-09-28T11:05:07.530Z,22.84
2016-09-28T11:06:06.891Z,22.8
2016-09-28T11:07:06.774Z,22.93
2016-09-28T11:08:07.070Z,23.19
2016-09-28T11:09:21.110Z,23.05
2016-09-28T11:10:06.926Z,23.09
2016-09-28T11:11:21.491Z,23.11
2016-09-28T11:12:07.038Z,23.09
2016-09-28T11:13:06.573Z,22.99
2016-09-28T11:14:06.873Z,22.94
2016-09-28T11:15:07.200Z,22.86
2016-09-28T11:16:20.898Z,22.94
2016-09-28T11:17:06.542Z,23.07
2016-09-28T11:20:20.860Z,23.26
2016-09-28T11:21:06.696Z,23.12
2016-09-28T11:22:20.768Z,23.12
2016-09-28T11:23:21.260Z,23.14
2016-09-28T11:24:21.110Z,22.99
2016-09-28T11:25:06.406Z,22.99
2016-09-28T11:26:07.406Z,23.07
2016-09-28T11:27:20.798Z,23.02
2016-09-28T11:28:05.958Z,22.93
2016-09-28T11:29:21.007Z,23.19
2016-09-28T11:30:06.718Z,23.26
2016-09-28T11:31:05.809Z,23.29
2016-09-28T11:32:05.809Z,23.38
2016-09-28T11:33:06.298Z,23.32
2016-09-28T11:34:07.327Z,23.35
2016-09-28T11:36:58.574Z,23.57
2016-09-28T11:37:28.924Z,23.57
2016-09-28T11:38:29.286Z,23.77
2016-09-28T11:39:29.012Z,23.75
2016-09-28T11:40:28.870Z,23.65
2016-09-28T11:41:29.396Z,23.67
2016-09-28T11:42:29.435Z,23.6
2016-09-28T11:43:28.822Z,23.62
2016-09-28T11:44:28.765Z,23.67
2016-09-28T11:45:29.425Z,23.77
2016-09-28T11:46:28.837Z,23.9
2016-09-28T11:47:29.067Z,23.89
2016-09-28T11:48:28.582Z,23.89
2016-09-28T11:49:43.243Z,23.83
2016-09-28T11:50:29.116Z,23.79
2016-09-28T11:51:28.589Z,23.72
2016-09-28T11:52:28.481Z,23.82
2016-09-28T11:53:28.784Z,23.77
2016-09-28T11:54:28.398Z,23.86
2016-09-28T11:56:29.130Z,23.77
2016-09-28T11:57:28.829Z,23.85
2016-09-28T11:58:28.937Z,23.8
2016-09-28T11:59:28.272Z,23.76
2016-09-28T12:00:29.480Z,23.68
2016-09-28T12:01:28.547Z,23.75
2016-09-28T12:02:28.477Z,23.7
2016-09-28T12:03:31.138Z,23.67
2016-09-28T12:04:28.776Z,23.57
2016-09-28T12:05:42.909Z,23.75
2016-09-28T12:06:28.164Z,23.85
2016-09-28T12:07:28.359Z,23.95
2016-09-28T12:08:28.819Z,24.04
2016-09-28T12:09:28.044Z,24.1
2016-09-28T12:10:28.793Z,24.16
2016-09-28T12:11:28.617Z,24.2
2016-09-28T12:12:27.909Z,24.14
2016-09-28T12:13:28.390Z,24.27
2016-09-28T12:14:27.959Z,24.34
2016-09-28T12:15:28.524Z,24.37
2016-09-28T12:16:27.972Z,24.32
2016-09-28T12:17:27.825Z,24.5
2016-09-28T12:18:28.352Z,24.37
2016-09-28T12:19:42.402Z,24.13
2016-09-28T12:20:28.458Z,24.08
2016-09-28T12:21:29.016Z,24.08
2016-09-28T12:22:28.258Z,24.1
2016-09-28T12:23:28.103Z,24.01
2016-09-28T12:24:28.266Z,23.95
2016-09-28T12:25:27.613Z,24
2016-09-28T12:26:27.739Z,24.02
2016-09-28T12:28:27.523Z,24.14
2016-09-28T12:29:27.597Z,24.19
2016-09-28T12:30:28.275Z,24.17
2016-09-28T12:32:50.831Z,24.22
2016-09-28T12:33:50.842Z,24.19
2016-09-28T12:34:51.023Z,24.24
2016-09-28T12:36:06.014Z,24.23
2016-09-28T12:37:05.699Z,24.29
2016-09-28T12:38:05.122Z,24.22
2016-09-28T12:39:07.337Z,24.22
2016-09-28T12:40:05.618Z,24.32
2016-09-28T12:40:53.341Z,24.23
2016-09-28T12:42:06.646Z,24.34
2016-09-28T12:42:50.665Z,24.38
2016-09-28T12:43:51.716Z,24.44
2016-09-28T12:44:50.432Z,24.44
2016-09-28T12:49:08.655Z,24.34
2016-09-28T12:49:38.667Z,24.34
2016-09-28T12:51:08.998Z,24.42
2016-09-28T12:51:48.092Z,24.41
2016-09-28T12:52:39.499Z,24.37
2016-09-28T12:53:39.491Z,24.71
2016-09-28T12:54:39.507Z,24.64
2016-09-28T12:55:39.439Z,24.87
2016-09-28T12:56:39.497Z,25.12
2016-09-28T12:57:39.554Z,25.19
2016-09-28T12:58:39.774Z,25.28
2016-09-28T12:59:39.327Z,25.19
2016-09-28T13:00:39.305Z,25.42
2016-09-28T13:01:39.279Z,25.53
2016-09-28T13:03:39.281Z,26.02
2016-09-28T13:04:39.232Z,26.02
2016-09-28T13:05:39.309Z,26.12
2016-09-28T13:06:39.743Z,26.37
2016-09-28T13:07:53.875Z,26.18
2016-09-28T13:08:39.191Z,26.17
2016-09-28T13:09:39.135Z,26.21
2016-09-28T13:10:39.110Z,26.22
2016-09-28T13:11:39.217Z,26.31
2016-09-28T13:12:39.022Z,26.57
2016-09-28T13:13:39.047Z,26.64
2016-09-28T13:14:39.012Z,26.61
2016-09-28T13:15:39.009Z,26.49
2016-09-28T13:16:38.931Z,26.35
2016-09-28T13:17:39.302Z,26.31
2016-09-28T13:18:38.878Z,26.24
2016-09-28T13:19:38.861Z,26.08
2016-09-28T13:20:39.064Z,26.12
2016-09-28T13:21:39.940Z,26.15
2016-09-28T13:22:40.667Z,25.89
2016-09-28T13:23:38.799Z,25.94
2016-09-28T13:24:38.769Z,25.89
2016-09-28T13:25:38.699Z,25.75
2016-09-28T13:26:39.086Z,25.89
2016-09-28T13:27:38.672Z,25.8
2016-09-28T13:28:53.619Z,25.47
2016-09-28T13:29:38.600Z,25.39
2016-09-28T13:34:25.064Z,25.07
2016-09-28T13:35:24.991Z,24.8
2016-09-28T13:36:25.644Z,24.91
2016-09-28T13:37:25.495Z,25.06
2016-09-28T13:38:25.059Z,25.12
2016-09-28T13:39:39.847Z,25.13
2016-09-28T13:40:25.660Z,25.24
2016-09-28T13:41:25.609Z,25.27
2016-09-28T13:42:25.515Z,25.2
2016-09-28T13:43:24.911Z,25.09